Time;durP1;ratioP1;P1;durP2;ratioP2;P2;SDS_P1;SDS_P2;PMS_P1;PMS_P2;Temp;Humidity;BMP_temperature;BMP_pressure;BME280_temperature;BME280_humidity;BME280_pressure;Samples;Min_cycle;Max_cycle;Signal;HPM_P1;HPM_P2
2023/01/25 00:01:54;;;;;;;10.90;7.30;;;;;;;-1.18;80.27;98739.60;109974;1242;68436;-73
2023/01/25 00:04:23;;;;;;;13.50;7.10;;;;;;;-1.17;79.78;98743.02;110187;1244;59670;-73
2023/01/25 00:06:52;;;;;;;13.30;7.40;;;;;;;-1.17;79.59;98744.57;110224;1241;59643;-73
2023/01/25 00:09:22;;;;;;;13.90;9.00;;;;;;;-1.18;78.58;98746.61;110230;1243;70664;-73
2023/01/25 00:11:52;;;;;;;;;;;;;;;-1.18;77.93;98746.63;110260;1244;69175;-72
2023/01/25 00:14:21;;;;;;;;;;;;;;;-1.21;75.12;98746.29;110276;1244;68541;-72
2023/01/25 00:16:50;;;;;;;;;;;;;;;-1.25;75.08;98749.73;110186;1244;59744;-73
2023/01/25 00:19:19;;;;;;;;;;;;;;;-1.29;74.24;98750.79;110165;1244;59671;-73
2023/01/25 00:21:48;;;;;;;;;;;;;;;-1.35;76.43;98751.48;110180;1243;70634;-73
2023/01/25 00:24:17;;;;;;;;;;;;;;;-1.39;78.57;98754.06;110132;1244;69504;-73
2023/01/25 00:26:45;;;;;;;;;;;;;;;-1.41;79.22;98754.94;110108;1244;69743;-73
2023/01/25 00:29:15;;;;;;;;;;;;;;;-1.45;79.21;98755.80;110038;1243;59710;-73
2023/01/25 00:31:47;;;;;;;;;;;;;;;-1.49;76.56;98752.73;110150;1243;59678;-72
2023/01/25 00:34:25;;;;;;;;;;;;;;;-1.54;75.55;98750.87;110077;1243;71404;-73
2023/01/25 00:36:56;;;;;;;;;;;;;;;-1.60;74.97;98754.48;110195;1244;69205;-73
2023/01/25 00:39:25;;;;;;;;;;;;;;;-1.68;81.50;98759.80;110161;1244;69343;-73
2023/01/25 00:41:54;;;;;;;;;;;;;;;-1.73;82.22;98759.64;110159;1244;59693;-72
2023/01/25 00:44:23;;;;;;;;;;;;;;;-1.77;82.79;98762.38;110213;1244;59634;-73
2023/01/25 00:46:52;;;;;;;;;;;;;;;-1.83;83.13;98764.10;110272;1243;71971;-73
2023/01/25 00:49:22;;;;;;;;;;;;;;;-1.87;83.15;98763.08;110242;1243;69787;-73
2023/01/25 00:51:52;;;;;;;;;;;;;;;-1.91;83.43;98759.84;110195;1244;69081;-73
2023/01/25 00:54:21;;;;;;;;;;;;;;;-1.94;83.75;98759.51;109937;1245;59653;-73
2023/01/25 00:56:55;;;;;;;;;;;;;;;-2.01;84.47;98761.05;109861;1245;59670;-73
2023/01/25 00:59:25;;;;;;;;;;;;;;;-2.08;83.69;98762.44;110254;1243;69875;-72
2023/01/25 01:01:54;;;;;;;;;;;;;;;-2.15;84.65;98762.77;110229;1241;68330;-73
2023/01/25 01:04:26;;;;;;;;;;;;;;;-2.19;84.74;98764.31;110129;1243;69621;-73
2023/01/25 01:06:55;;;;;;;;;;;;;;;-2.26;84.43;98763.63;109967;1244;59809;-73
2023/01/25 01:09:23;;;;;;;;;;;;;;;-2.31;84.70;98762.09;109525;1244;636895;-72
2023/01/25 01:11:53;;;;;;;;;;;;;;;-2.35;84.74;98756.98;109944;1243;70758;-72
2023/01/25 01:14:22;;;;;;;;;;;;;;;-2.38;85.62;98764.14;109986;1244;69087;-73
2023/01/25 01:16:51;;;;;;;;;;;;;;;-2.40;85.51;98762.10;110075;1244;69357;-73
2023/01/25 01:19:20;;;;;;;;;;;;;;;-2.41;85.69;98758.66;110025;1244;59734;-73
2023/01/25 01:21:49;;;;;;;;;;;;;;;-2.42;84.11;98758.31;110019;1244;59736;-73
2023/01/25 01:24:19;;;;;;;;;;;;;;;-2.43;82.61;98754.07;110038;1244;71231;-73
2023/01/25 01:26:47;;;;;;;;;;;;;;;-2.43;82.60;98754.41;109984;1244;69243;-73
2023/01/25 01:29:17;;;;;;;;;;;;;;;-2.44;84.35;98752.20;109870;1246;69162;-73
2023/01/25 01:31:48;;;;;;;;;;;;;;;-2.45;84.12;98742.79;110177;1243;59833;-73
2023/01/25 01:34:20;;;;;;;;;;;;;;;-2.46;85.93;98746.55;110003;1244;59750;-73
2023/01/25 01:36:49;;;;;;;;;;;;;;;-2.47;85.70;98744.15;109907;1244;70811;-73
2023/01/25 01:39:19;;;;;;;;;;;;;;;-2.48;85.34;98743.48;110037;1242;68334;-73
2023/01/25 01:41:48;;;;;;;;;;;;;;;-2.49;85.85;98739.91;109963;1243;69260;-72
2023/01/25 01:44:18;;;;;;;;;;;;;;;-2.48;86.58;98737.52;109915;1245;59718;-73
2023/01/25 01:46:54;;;;;;;;;;;;;;;-2.49;86.77;98738.36;110259;1244;59678;-73
2023/01/25 01:49:30;;;;;;;;;;;;;;;-2.48;86.77;98739.89;110269;1243;71235;-73
2023/01/25 01:52:10;;;;;;;;;;;;;;;-2.47;86.69;98738.35;110220;1243;69392;-72
2023/01/25 01:54:47;;;;;;;;;;;;;;;-2.45;87.21;98741.09;110023;1244;69184;-73
2023/01/25 01:57:19;;;;;;;;;;;;;;;-2.44;87.38;98742.80;109976;1245;59739;-73
2023/01/25 01:59:51;;;;;;;;;;;;;;;-2.42;83.98;98741.94;109933;1245;59652;-73
2023/01/25 02:02:23;;;;;;;;;;;;;;;-2.40;82.77;98743.65;110224;1244;70650;-73
2023/01/25 02:04:54;;;;;;;;;;;;;;;-2.38;83.36;98746.90;109924;1243;67415;-73
2023/01/25 02:07:28;;;;;;;;;;;;;;;-2.35;84.56;98749.29;109867;1246;68691;-73
2023/01/25 02:09:58;;;;;;;;;;;;;;;-2.29;84.66;98748.42;110099;1244;59755;-73
2023/01/25 02:12:28;;;;;;;;;;;;;;;-2.24;84.69;98745.02;110084;1241;59737;-73
2023/01/25 02:14:57;;;;;;;;;;;;;;;-2.17;85.21;98747.73;110205;1243;71335;-73
2023/01/25 02:17:27;;;;;;;;;;;;;;;-2.12;86.89;98743.64;109953;1244;69438;-73
2023/01/25 02:20:07;;;;;;;;;;;;;;;-2.07;87.06;98738.85;110246;1243;69113;-72
2023/01/25 02:22:44;;;;;;;;;;;;;;;-2.03;85.45;98735.41;110145;1245;59709;-72
2023/01/25 02:25:15;;;;;;;;;;;;;;;-1.98;84.60;98734.21;110073;1244;59754;-73
2023/01/25 02:27:48;;;;;;;;;;;;;;;-1.92;84.33;98736.77;110066;1243;70632;-73
2023/01/25 02:30:17;;;;;;;;;;;;;;;-1.88;85.36;98734.38;109999;1243;68312;-73
2023/01/25 02:32:47;;;;;;;;;;;;;;;-1.84;85.93;98730.10;110004;1244;69529;-73
2023/01/25 02:35:22;;;;;;;;;;;;;;;-1.80;84.33;98725.81;110113;1244;59742;-73
2023/01/25 02:37:51;;;;;;;;;;;;;;;-1.77;85.22;98723.41;109991;1242;59686;-73
2023/01/25 02:40:21;;;;;;;;;;;;;;;-1.73;84.61;98724.77;110080;1241;71343;-73
2023/01/25 02:42:50;;;;;;;;;;;;;;;-1.70;84.31;98721.00;110242;1243;69855;-73
2023/01/25 02:45:22;;;;;;;;;;;;;;;-1.68;83.85;98719.45;110091;1244;69272;-72
2023/01/25 02:47:53;;;;;;;;;;;;;;;-1.66;83.75;98720.48;110192;1244;59678;-72
2023/01/25 02:50:22;;;;;;;;;;;;;;;-1.65;83.74;98718.93;110202;1244;59692;-72
2023/01/25 02:52:51;;;;;;;;;;;;;;;-1.63;83.34;98716.36;110130;1243;70466;-72
2023/01/25 02:55:20;;;;;;;;;;;;;;;-1.61;83.85;98717.91;109955;1242;69237;-72
2023/01/25 02:57:51;;;;;;;;;;;;;;;-1.60;84.18;98717.71;109868;1247;69311;-72
2023/01/25 03:00:21;;;;;;;;;;;;;;;-1.59;83.81;98722.16;110113;1243;59681;-72
2023/01/25 03:02:51;;;;;;;;;;;;;;;-1.59;83.86;98725.05;110126;1241;59720;-72
2023/01/25 03:05:23;;;;;;;;;;;;;;;-1.57;83.70;98723.36;109949;1246;71676;-72
2023/01/25 03:07:53;;;;;;;;;;;;;;;-1.56;83.68;98721.14;109978;1242;69873;-73
2023/01/25 03:10:23;;;;;;;;;;;;;;;-1.55;83.07;98718.22;109974;1245;69087;-72
2023/01/25 03:12:55;;;;;;;;;;;;;;;-1.55;82.88;98720.09;110067;1245;59684;-72
2023/01/25 03:15:25;;;;;;;;;;;;;;;-1.55;82.74;98716.67;110196;1244;59668;-72
2023/01/25 03:17:58;;;;;;;;;;;;;;;-1.54;82.77;98713.42;109851;1244;72414;-72
2023/01/25 03:20:29;;;;;;;;;;;;;;;-1.55;81.75;98710.70;110109;1245;69202;-72
2023/01/25 03:22:58;;;;;;;;;;;;;;;-1.59;81.23;98707.98;110110;1244;68419;-72
2023/01/25 03:25:28;;;;;;;;;;;;;;;-1.65;80.60;98705.08;110056;1244;59697;-72
2023/01/25 03:28:02;;;;;;;;;;;;;;;-1.71;80.93;98701.86;110114;1243;59654;-72
2023/01/25 03:30:30;;;;;;;;;;;;;;;-1.79;81.68;98701.38;109945;1242;71998;-72
2023/01/25 03:33:00;;;;;;;;;;;;;;;-1.88;82.67;98699.16;109998;1244;67810;-72
2023/01/25 03:35:30;;;;;;;;;;;;;;;-1.97;84.28;98699.38;110145;1243;68767;-73
2023/01/25 03:37:59;;;;;;;;;;;;;;;-2.05;83.54;98700.23;110214;1242;59696;-73
2023/01/25 03:40:29;;;;;;;;;;;;;;;-2.13;84.03;98697.00;110319;1243;60066;-73
2023/01/25 03:42:58;;;;;;;;;;;;;;;-2.23;85.33;98697.36;110114;1243;71235;-73
2023/01/25 03:45:27;;;;;;;;;;;;;;;-2.34;85.22;98694.81;110205;1244;69779;-73
2023/01/25 03:47:56;;;;;;;;;;;;;;;-2.43;85.26;98695.84;110232;1242;69167;-72
2023/01/25 03:50:26;;;;;;;;;;;;;;;-2.54;86.42;98696.02;110174;1244;59695;-73
2023/01/25 03:53:00;;;;;;;;;;;;;;;-2.65;87.35;98694.83;110165;1247;59942;-73
2023/01/25 03:55:31;;;;;;;;;;;;;;;-2.74;87.55;98694.30;110136;1244;70651;-73
2023/01/25 03:58:00;;;;;;;;;;;;;;;-2.84;87.85;98693.77;110008;1243;68504;-73
2023/01/25 04:00:29;;;;;;;;;;;;;;;-2.92;87.83;98691.39;110080;1244;69298;-73
2023/01/25 04:02:59;;;;;;;;;;;;;;;-3.01;87.26;98690.01;110025;1244;59705;-73
2023/01/25 04:05:31;;;;;;;;;;;;;;;-3.10;86.92;98690.34;110020;1245;59749;-73
2023/01/25 04:08:01;;;;;;;;;;;;;;;-3.19;86.35;98684.86;110102;1242;71443;-73
2023/01/25 04:10:36;;;;;;;;;;;;;;;-3.26;86.62;98688.59;109946;1244;69847;-73
2023/01/25 04:13:06;;;;;;;;;;;;;;;-3.35;86.54;98687.88;110203;1243;69835;-73
2023/01/25 04:15:35;;;;;;;;;;;;;;;-3.44;86.36;98688.54;110188;1244;59677;-73
2023/01/25 04:18:11;;;;;;;;;;;;;;;-3.52;86.96;98693.80;110099;1244;59664;-73
2023/01/25 04:20:40;;;;;;;;;;;;;;;-3.60;88.76;98695.30;109968;1246;70517;-73
2023/01/25 04:23:11;;;;;;;;;;;;;;;-3.68;88.81;98702.92;110171;1244;68471;-73
2023/01/25 04:25:42;;;;;;;;;;;;;;;-3.76;88.06;98704.08;109988;1243;68534;-73
2023/01/25 04:28:12;;;;;;;;;;;;;;;-3.84;88.57;98705.57;110263;1241;59681;-73
2023/01/25 04:30:42;;;;;;;;;;;;;;;-3.91;88.59;98708.27;110301;1242;59739;-73
2023/01/25 04:33:12;;;;;;;;;;;;;;;-3.97;89.70;98712.30;110068;1245;71214;-73
2023/01/25 04:35:43;;;;;;;;;;;;;;;-4.02;90.43;98712.63;110238;1243;69290;-73
2023/01/25 04:38:13;;;;;;;;;;;;;;;-4.06;90.05;98709.02;109913;1247;69668;-72
2023/01/25 04:40:44;;;;;;;;;;;;;;;-4.12;88.77;98712.23;110019;1243;59608;-73
2023/01/25 04:43:13;;;;;;;;;;;;;;;-4.14;87.77;98708.48;109960;1242;59643;-73
2023/01/25 04:45:45;;;;;;;;;;;;;;;-4.16;88.60;98704.55;109970;1244;71249;-73
2023/01/25 04:48:20;;;;;;;;;;;;;;;-4.18;88.56;98706.91;110211;1242;69618;-73
2023/01/25 04:50:53;;;;;;;;;;;;;;;-4.21;89.79;98707.73;110239;1244;69300;-73
2023/01/25 04:53:23;;;;;;;;;;;;;;;-4.24;90.31;98705.68;110124;1244;59748;-73
2023/01/25 04:55:52;;;;;;;;;;;;;;;-4.28;90.71;98702.41;110187;1244;59737;-73
2023/01/25 04:58:21;;;;;;;;;;;;;;;-4.33;89.51;98702.73;110202;1244;70711;-73
2023/01/25 05:00:51;;;;;;;;;;;;;;;-4.39;88.94;98700.81;109953;1243;68563;-73
2023/01/25 05:03:20;;;;;;;;;;;;;;;-4.45;88.31;98697.36;110178;1244;67566;-73
2023/01/25 05:05:49;;;;;;;;;;;;;;;-4.49;86.50;98704.98;110226;1242;59761;-73
2023/01/25 05:08:20;;;;;;;;;;;;;;;-4.52;85.10;98706.34;110090;1241;59732;-73
2023/01/25 05:10:53;;;;;;;;;;;;;;;-4.51;85.32;98710.26;109976;1244;71430;-73
2023/01/25 05:13:42;;;;;;;;;;;;;;;-4.52;86.94;98712.27;110235;1243;68440;-73
2023/01/25 05:16:16;;;;;;;;;;;;;;;-4.55;88.02;98715.66;110208;1242;69287;-72
2023/01/25 05:18:45;;;;;;;;;;;;;;;-4.58;88.89;98713.08;110136;1243;59749;-73
2023/01/25 05:24:12;;;;;;;;;;;;;;;-4.65;90.64;98704.86;110217;1243;71986;-73
2023/01/25 05:27:02;;;;;;;;;;;;;;;-4.70;89.97;98703.46;110233;1241;68459;-73
2023/01/25 05:29:49;;;;;;;;;;;;;;;-4.76;89.39;98705.45;110277;1244;69879;-72
2023/01/25 05:32:19;;;;;;;;;;;;;;;-4.80;85.81;98708.98;110104;1243;59689;-73
2023/01/25 05:34:49;;;;;;;;;;;;;;;-4.82;84.16;98708.62;110188;1244;59674;-73
2023/01/25 05:37:19;;;;;;;;;;;;;;;-4.83;84.99;98712.19;110210;1244;70634;-72
2023/01/25 05:39:51;;;;;;;;;;;;;;;-4.88;86.23;98715.38;110253;1242;69067;-72
2023/01/25 05:42:20;;;;;;;;;;;;;;;-4.91;88.00;98717.21;109807;1247;69853;-72
2023/01/25 05:44:49;;;;;;;;;;;;;;;-4.94;89.97;98717.19;110062;1244;59748;-72
2023/01/25 05:47:18;;;;;;;;;;;;;;;-4.96;90.56;98720.23;110151;1244;59689;-72
2023/01/25 05:49:47;;;;;;;;;;;;;;;-4.98;90.93;98724.30;110063;1244;70452;-71
2023/01/25 05:52:21;;;;;;;;;;;;;;;-5.00;90.22;98722.89;110041;1244;69820;-72
2023/01/25 05:54:50;;;;;;;;;;;;;;;-5.02;89.59;98726.30;110220;1243;68696;-73
2023/01/25 05:57:18;;;;;;;;;;;;;;;-5.02;90.05;98726.29;110216;1243;59700;-72
2023/01/25 05:59:47;;;;;;;;;;;;;;;-5.01;90.70;98723.73;110048;1246;59655;-71
2023/01/25 06:02:18;;;;;;;;;;;;;;;-4.99;90.30;98722.58;110285;1244;69964;-72
2023/01/25 06:04:47;;;;;;;;;;;;;;;-4.96;90.81;98722.61;109983;1247;67626;-72
2023/01/25 06:07:15;;;;;;;;;;;;;;;-4.90;92.74;98723.70;109874;1247;69251;-73
2023/01/25 06:09:44;;;;;;;;;;;;;;;-4.84;91.80;98726.98;110125;1243;59768;-73
2023/01/25 06:12:13;;;;;;;;;;;;;;;-4.78;91.14;98729.42;110256;1244;59631;-72
2023/01/25 06:14:42;;;;;;;;;;;;;;;-4.71;90.88;98733.55;110124;1241;71899;-73
2023/01/25 06:17:11;;;;;;;;;;;;;;;-4.64;89.25;98732.61;110304;1244;69244;-72
2023/01/25 06:19:58;;;;;;;;;;;;;;;-4.54;87.34;98733.70;109981;1244;69629;-72
2023/01/25 06:22:36;;;;;;;;;;;;;;;-4.47;86.26;98734.61;109966;1244;59674;-72
2023/01/25 06:25:05;;;;;;;;;;;;;;;-4.39;87.21;98738.43;110182;1244;59724;-72
2023/01/25 06:27:35;;;;;;;;;;;;;;;-4.29;88.19;98734.58;110167;1244;71385;-72
2023/01/25 06:30:03;;;;;;;;;;;;;;;-4.19;90.16;98739.92;110204;1243;69259;-72
2023/01/25 06:32:32;;;;;;;;;;;;;;;-4.13;87.38;98740.66;110262;1241;68686;-72
2023/01/25 06:35:02;;;;;;;;;;;;;;;-4.02;90.56;98748.20;110030;1244;59808;-72
2023/01/25 06:37:30;;;;;;;;;;;;;;;-3.94;90.69;98749.46;110189;1245;59691;-72
2023/01/25 06:39:59;;;;;;;;;;;;;;;-3.86;89.15;98750.36;110153;1243;71425;-73
2023/01/25 06:42:28;;;;;;;;;;;;;;;-3.75;90.23;98752.64;110283;1243;69989;-72
2023/01/25 06:44:56;;;;;;;;;;;;;;;-3.67;89.99;98746.55;110077;1243;69296;-72
2023/01/25 06:47:25;;;;;;;;;;;;;;;-3.58;89.57;98742.16;110236;1243;59743;-72
2023/01/25 06:49:54;;;;;;;;;;;;;;;-3.49;88.87;98744.08;110273;1244;59685;-72
2023/01/25 06:52:23;;;;;;;;;;;;;;;-3.41;88.47;98744.11;110087;1244;70728;-72
2023/01/25 06:54:51;;;;;;;;;;;;;;;-3.32;88.46;98744.83;110095;1243;69715;-72
2023/01/25 06:57:20;;;;;;;;;;;;;;;-3.24;88.68;98751.00;110174;1244;69130;-74
2023/01/25 06:59:48;;;;;;;;;;;;;;;-3.15;88.50;98750.01;110204;1242;59702;-71
2023/01/25 07:02:17;;;;;;;;;;;;;;;-3.07;88.89;98751.56;110127;1244;59683;-71
2023/01/25 07:04:47;;;;;;;;;;;;;;;-2.99;88.15;98753.64;110150;1242;71894;-71
2023/01/25 07:07:15;;;;;;;;;;;;;;;-2.91;87.56;98751.27;109843;1244;68756;-71
2023/01/25 07:09:44;;;;;;;;;;;;;;;-2.81;87.32;98753.17;109805;1244;68488;-71
2023/01/25 07:12:13;;;;;;;;;;;;;;;-2.72;86.78;98753.01;110053;1244;59654;-72
2023/01/25 07:14:42;;;;;;;;;;;;;;;-2.62;86.65;98752.35;109980;1242;59740;-72
2023/01/25 07:17:11;;;;;;;;;;;;;;;-2.51;86.16;98749.61;110041;1244;71414;-72
2023/01/25 07:19:40;;;;;;;;;;;;;;;-2.39;85.39;98752.70;110104;1243;68570;-72
2023/01/25 07:22:10;;;;;;;;;;;;;;;-2.26;84.65;98752.20;110128;1241;69853;-72
2023/01/25 07:24:39;;;;;;;;;;;;;;;-2.14;83.51;98750.98;110127;1243;59672;-72
2023/01/25 07:27:08;;;;;;;;;;;;;;;-2.00;83.47;98753.02;110282;1243;59689;-72
2023/01/25 07:29:36;;;;;;;;;;;;;;;-1.90;82.08;98754.89;110247;1243;71802;-71
2023/01/25 07:32:05;;;;;;;;;;;;;;;-1.82;81.12;98750.27;110227;1243;68377;-72
2023/01/25 07:34:33;;;;;;;;;;;;;;;-1.72;80.90;98746.66;110153;1243;69094;-72
2023/01/25 07:37:02;;;;;;;;;;;;;;;-1.64;80.16;98751.06;110081;1244;59761;-72
2023/01/25 07:39:31;;;;;;;;;;;;;;;-1.55;79.58;98746.60;110131;1243;59689;-73
2023/01/25 07:41:59;;;;;;;;;;;;;;;-1.46;78.89;98742.97;110286;1243;71109;-72
2023/01/25 07:44:32;;;;;;;;;;;;;;;-1.36;79.50;98743.45;110254;1244;68516;-71
2023/01/25 07:47:12;;;;;;;;;;;;;;;-1.31;77.97;98745.65;110207;1244;69793;-70
2023/01/25 07:49:42;;;;;;;;;;;;;;;-1.22;77.95;98743.73;109939;1245;59696;-71
2023/01/25 07:52:10;;;;;;;;;;;;;;;-1.12;78.47;98737.70;110255;1243;59660;-70
2023/01/25 07:54:39;;;;;;;;;;;;;;;-1.05;77.32;98734.41;110169;1243;71396;-69
2023/01/25 07:57:08;;;;;;;;;;;;;;;-0.99;76.69;98737.63;110298;1244;69097;-69
2023/01/25 07:59:36;;;;;;;;;;;;;;;-0.94;76.69;98738.46;110223;1242;69862;-70
2023/01/25 08:02:07;;;;;;;;;;;;;;;-0.89;77.05;98735.36;110355;1241;60076;-70
2023/01/25 08:04:35;;;;;;;;;;;;;;;-0.82;76.10;98737.20;109890;1247;59700;-70
2023/01/25 08:07:04;;;;;;;;;;;;;;;-0.76;76.09;98737.33;110227;1244;71781;-70
2023/01/25 08:09:33;;;;;;;;;;;;;;;-0.68;75.70;98732.98;110006;1243;69287;-68
2023/01/25 08:12:01;;;;;;;;;;;;;;;-0.66;75.92;98734.35;110170;1247;69699;-68
2023/01/25 08:14:30;;;;;;;;;;;;;;;-0.60;75.61;98732.25;109957;1244;59702;-68
2023/01/25 08:16:59;;;;;;;;;;;;;;;-0.52;75.21;98729.46;110122;1243;59673;-68
2023/01/25 08:19:27;;;;;;;;;;;;;;;-0.47;73.57;98730.63;109916;1244;71946;-68
2023/01/25 08:21:56;;;;;;;;;;;;;;;-0.42;73.63;98731.60;110003;1243;68653;-68
2023/01/25 08:24:25;;;;;;;;;;;;;;;-0.34;73.35;98733.27;110066;1246;69286;-68
2023/01/25 08:26:54;;;;;;;;;;;;;;;-0.29;72.04;98732.70;110156;1244;59761;-68
2023/01/25 08:29:23;;;;;;;;;;;;;;;-0.19;72.88;98732.10;109847;1247;59697;-68
2023/01/25 08:31:51;;;;;;;;;;;;;;;-0.07;73.44;98729.59;109925;1245;70475;-69
2023/01/25 08:34:20;;;;;;;;;;;;;;;-0.01;71.55;98732.27;109927;1244;69888;-69
2023/01/25 08:36:49;;;;;;;;;;;;;;;0.10;72.89;98732.86;109911;1245;69517;-69
2023/01/25 08:39:18;;;;;;;;;;;;;;;0.12;70.83;98732.49;109875;1245;59718;-69
2023/01/25 08:41:47;;;;;;;;;;;;;;;0.16;70.69;98731.08;109807;1246;59631;-69
2023/01/25 08:44:15;;;;;;;;;;;;;;;0.26;71.89;98732.70;109861;1242;71369;-69
2023/01/25 08:46:45;;;;;;;;;;;;;;;0.32;71.98;98728.86;109955;1244;69290;-69
2023/01/25 08:49:13;;;;;;;;;;;;;;;0.36;71.95;98728.30;110049;1244;68565;-70
2023/01/25 08:51:42;;;;;;;;;;;;;;;0.41;71.63;98728.58;109974;1244;59670;-69
2023/01/25 08:54:11;;;;;;;;;;;;;;;0.43;70.86;98730.63;109926;1246;59750;-69
2023/01/25 08:56:40;;;;;;;;;;;;;;;0.44;69.18;98726.34;109824;1247;69502;-70
2023/01/25 08:59:10;;;;;;;;;;;;;;;0.47;69.74;98721.99;109869;1244;69132;-69
2023/01/25 09:01:38;;;;;;;;;;;;;;;0.47;67.84;98722.52;109995;1244;69050;-70
2023/01/25 09:04:07;;;;;;;;;;;;;;;0.51;68.84;98721.61;109814;1243;59690;-69
2023/01/25 09:06:36;;;;;;;;;;;;;;;0.50;68.94;98722.31;110056;1251;60046;-70
2023/01/25 09:09:06;;;;;;;;;;;;;;;0.61;69.85;98717.39;109895;1244;71990;-70
2023/01/25 09:11:36;;;;;;;;;;;;;;;0.68;69.77;98709.23;110108;1241;68600;-70
2023/01/25 09:14:05;;;;;;;;;;;;;;;0.69;67.18;98707.16;110082;1243;68562;-70
2023/01/25 09:16:34;;;;;;;;;;;;;;;0.77;67.23;98704.15;110138;1244;59675;-70
2023/01/25 09:19:04;;;;;;;;;;;;;;;0.80;66.49;98705.48;110143;1244;59703;-70
2023/01/25 09:21:33;;;;;;;;;;;;;;;0.79;66.05;98702.39;110122;1244;69675;-69
2023/01/25 09:24:02;;;;;;;;;;;;;;;0.77;66.53;98700.70;110159;1241;69250;-70
2023/01/25 09:26:39;;;;;;;;;;;;;;;0.70;65.90;98690.68;110120;1245;69296;-71
2023/01/25 09:29:10;;;;;;;;;;;;;;;0.73;66.35;98692.17;110003;1245;59682;-71
2023/01/25 09:31:39;;;;;;;;;;;;;;;0.79;66.12;98688.16;110233;1244;59689;-71
2023/01/25 09:34:24;;;;;;;;;;;;;;;0.75;65.40;98683.91;110314;1244;71106;-70
2023/01/25 09:36:53;;;;;;;;;;;;;;;0.71;66.32;98682.42;110286;1245;69216;-70
2023/01/25 09:39:21;;;;;;;;;;;;;;;0.60;65.85;98681.55;110138;1244;69725;-70
2023/01/25 09:41:59;;;;;;;;;;;;;;;0.59;65.83;98677.61;110277;1244;59746;-71
2023/01/25 09:44:56;;;;;;;;;;;;;;;0.62;66.30;98673.96;110252;1244;59610;-70
2023/01/25 09:47:27;;;;;;;;;;;;;;;0.77;66.97;98672.05;110227;1241;71980;-69
2023/01/25 09:50:02;;;;;;;;;;;;;;;0.82;66.26;98668.72;110085;1242;70060;-70
2023/01/25 09:52:46;;;;;;;;;;;;;;;0.82;66.50;98670.27;110294;1244;70802;-71
2023/01/25 09:55:17;;;;;;;;;;;;;;;0.61;65.46;98661.27;110208;1244;59746;-71
2023/01/25 09:57:47;;;;;;;;;;;;;;;0.60;66.39;98661.45;110163;1244;59712;-70
2023/01/25 10:00:19;;;;;;;;;;;;;;;0.56;65.73;98653.63;110132;1246;70655;-69
2023/01/25 10:02:56;;;;;;;;;;;;;;;0.52;64.66;98650.42;110135;1244;69057;-69
2023/01/25 10:05:27;;;;;;;;;;;;;;;0.58;65.20;98643.46;109828;1243;69139;-69
2023/01/25 10:08:19;;;;;;;;;;;;;;;0.61;65.31;98641.55;109910;1244;59702;-69
2023/01/25 10:10:49;;;;;;;;;;;;;;;0.66;65.31;98636.67;109927;1244;59747;-69
2023/01/25 10:13:20;;;;;;;;;;;;;;;0.73;65.56;98634.69;109837;1242;71403;-70
2023/01/25 10:15:51;;;;;;;;;;;;;;;0.77;63.61;98629.31;109929;1244;69228;-70
2023/01/25 10:18:38;;;;;;;;;;;;;;;0.77;63.40;98625.88;109999;1242;68428;-70
2023/01/25 10:21:13;;;;;;;;;;;;;;;0.80;63.91;98621.21;109971;1245;59749;-70
2023/01/25 10:23:54;;;;;;;;;;;;;;;0.79;63.00;98618.82;110018;1244;59639;-70
2023/01/25 10:26:25;;;;;;;;;;;;;;;0.78;63.46;98615.05;109841;1244;71374;-70
2023/01/25 10:29:12;;;;;;;;;;;;;;;0.83;62.95;98616.54;109800;1244;68735;-70
2023/01/25 10:31:41;;;;;;;;;;;;;;;0.87;63.06;98613.90;109881;1244;69077;-70
2023/01/25 10:34:18;;;;;;;;;;;;;;;0.84;61.73;98609.30;109933;1243;59772;-70
2023/01/25 10:36:50;;;;;;;;;;;;;;;0.75;61.45;98605.49;109938;1243;59697;-69
2023/01/25 10:39:18;;;;;;;;;;;;;;;0.67;61.71;98600.13;109862;1244;72335;-69
2023/01/25 10:41:51;;;;;;;;;;;;;;;0.66;61.57;98596.35;110070;1243;69262;-70
2023/01/25 10:44:23;;;;;;;;;;;;;;;0.62;61.22;98591.78;109804;1244;68233;-69
2023/01/25 10:47:10;;;;;;;;;;;;;;;0.58;61.40;98593.21;109838;1244;59707;-69
2023/01/25 10:49:42;;;;;;;;;;;;;;;0.65;61.37;98587.45;110097;1244;59687;-69
2023/01/25 10:52:13;;;;;;;;;;;;;;;0.69;60.38;98580.54;110077;1244;70770;-69
2023/01/25 10:54:42;;;;;;;;;;;;;;;0.60;60.64;98575.17;109844;1244;69081;-69
2023/01/25 10:57:13;;;;;;;;;;;;;;;0.60;60.73;98572.25;110047;1244;69069;-70
2023/01/25 10:59:45;;;;;;;;;;;;;;;0.58;60.14;98571.41;109952;1243;60093;-69
2023/01/25 11:02:32;;;;;;;;;;;;;;;0.61;60.47;98569.67;110091;1244;59682;-69
2023/01/25 11:05:19;;;;;;;;;;;;;;;0.62;60.35;98570.67;110025;1242;71973;-69
2023/01/25 11:07:48;;;;;;;;;;;;;;;0.60;60.70;98563.85;109785;1244;69104;-69
2023/01/25 11:10:30;;;;;;;;;;;;;;;0.55;61.03;98559.28;110066;1244;68578;-70
2023/01/25 11:13:30;;;;;;;;;;;;;;;0.56;61.18;98555.50;110102;1244;59783;-70
2023/01/25 11:16:00;;;;;;;;;;;;;;;0.53;61.19;98548.17;109907;1245;59695;-70
2023/01/25 11:18:32;;;;;;;;;;;;;;;0.50;61.26;98549.75;109978;1246;71380;-70
2023/01/25 11:21:03;;;;;;;;;;;;;;;0.53;61.53;98547.99;109994;1244;69713;-70
2023/01/25 11:23:33;;;;;;;;;;;;;;;0.58;61.74;98546.20;110019;1244;69120;-70
2023/01/25 11:26:18;;;;;;;;;;;;;;;0.65;61.37;98546.79;109987;1244;59753;-70
2023/01/25 11:28:50;;;;;;;;;;;;;;;0.70;60.88;98540.52;109930;1243;59671;-70
2023/01/25 11:31:20;;;;;;;;;;;;;;;0.70;60.41;98536.59;109879;1244;71679;-70
2023/01/25 11:33:49;;;;;;;;;;;;;;;0.70;60.25;98533.50;109835;1244;69048;-70
2023/01/25 11:36:24;;;;;;;;;;;;;;;0.69;60.42;98531.11;110051;1244;68565;-70
2023/01/25 11:39:12;;;;;;;;;;;;;;;0.70;60.51;98530.58;109904;1243;59711;-70
2023/01/25 11:41:46;;;;;;;;;;;;;;;0.73;60.63;98521.27;109714;1244;59660;-70
2023/01/25 11:44:26;;;;;;;;;;;;;;;0.74;60.01;98520.22;110035;1244;70456;-70
2023/01/25 11:47:13;;;;;;;;;;;;;;;0.71;59.88;98518.20;110072;1244;68485;-71
2023/01/25 11:49:54;;;;;;;;;;;;;;;0.69;60.37;98513.09;109838;1244;68337;-71
2023/01/25 11:52:33;;;;;;;;;;;;;;;0.69;60.25;98513.09;110073;1242;59750;-70
2023/01/25 11:55:16;;;;;;;;;;;;;;;0.68;60.08;98507.10;109829;1242;59681;-70
2023/01/25 11:57:56;;;;;;;;;;;;;;;0.66;60.24;98504.55;109888;1244;71378;-70
2023/01/25 12:00:31;;;;;;;;;;;;;;;0.63;60.37;98496.55;109946;1244;69923;-70
2023/01/25 12:03:18;;;;;;;;;;;;;;;0.55;60.62;98494.27;110019;1244;68813;-71
2023/01/25 12:05:53;;;;;;;;;;;;;;;0.55;60.41;98495.30;110289;1244;59692;-71
2023/01/25 12:08:39;;;;;;;;;;;;;;;0.52;60.19;98490.19;110150;1245;59687;-71
2023/01/25 12:11:14;;;;;;;;;;;;;;;0.49;59.75;98485.77;110121;1245;70979;-71
2023/01/25 12:13:53;;;;;;;;;;;;;;;0.46;59.87;98481.88;110216;1245;69608;-69
2023/01/25 12:16:25;;;;;;;;;;;;;;;0.43;59.95;98480.05;110140;1244;68397;-70
2023/01/25 12:19:02;;;;;;;;;;;;;;;0.41;60.39;98475.45;110135;1245;59755;-70
2023/01/25 12:21:40;;;;;;;;;;;;;;;0.42;60.38;98475.25;110189;1245;59699;-71
2023/01/25 12:24:20;;;;;;;;;;;;;;;0.43;60.16;98476.61;110129;1244;71450;-70
2023/01/25 12:27:06;;;;;;;;;;;;;;;0.40;59.93;98475.61;110187;1244;69184;-70
2023/01/25 12:29:37;;;;;;;;;;;;;;;0.35;59.93;98473.13;110235;1241;69261;-70
2023/01/25 12:32:18;;;;;;;;;;;;;;;0.33;60.34;98474.72;110166;1244;60133;-70
2023/01/25 12:34:50;;;;;;;;;;;;;;;0.34;60.34;98470.75;110126;1245;59739;-70
2023/01/25 12:37:27;;;;;;;;;;;;;;;0.37;60.48;98468.81;110150;1241;70937;-70
2023/01/25 12:40:08;;;;;;;;;;;;;;;0.40;60.47;98467.39;110111;1244;68696;-70
2023/01/25 12:42:40;;;;;;;;;;;;;;;0.39;60.04;98468.96;110093;1244;68521;-70
2023/01/25 12:45:13;;;;;;;;;;;;;;;0.36;60.13;98467.29;110110;1243;59718;-70
2023/01/25 12:47:41;;;;;;;;;;;;;;;0.36;60.09;98468.48;109910;1245;59736;-70
2023/01/25 12:50:12;;;;;;;;;;;;;;;0.32;59.52;98463.06;110085;1246;71976;-70
2023/01/25 12:52:46;;;;;;;;;;;;;;;0.28;59.56;98466.56;110093;1246;69503;-70
2023/01/25 12:55:16;;;;;;;;;;;;;;;0.26;59.67;98467.95;110096;1246;69146;-70
2023/01/25 12:58:05;;;;;;;;;;;;;;;0.20;59.51;98463.05;110092;1245;59712;-70
2023/01/25 13:00:51;;;;;;;;;;;;;;;0.16;59.81;98461.58;110164;1244;59749;-70
2023/01/25 13:03:20;;;;;;;;;;;;;;;0.19;60.16;98461.54;110122;1244;70406;-70
2023/01/25 13:05:55;;;;;;;;;;;;;;;0.21;60.08;98457.56;110131;1242;69260;-70